Time;durP1;ratioP1;P1;durP2;ratioP2;P2;SDS_P1;SDS_P2;PMS_P1;PMS_P2;Temp;Humidity;BMP_temperature;BMP_pressure;BME280_temperature;BME280_humidity;BME280_pressure;Samples;Min_cycle;Max_cycle;Signal;HPM_P1;HPM_P2
2023/10/04 00:01:06;;;;;;;33.70;22.88;;;19.10;99.90;;;;;;4991521;28;20076;-73
2023/10/04 00:03:32;;;;;;;32.83;21.33;;;19.00;99.90;;;;;;5003167;28;20022;-73
2023/10/04 00:05:59;;;;;;;34.20;21.23;;;19.00;99.90;;;;;;4989881;28;20026;-73
2023/10/04 00:08:25;;;;;;;33.45;22.00;;;19.10;99.90;;;;;;4996580;28;20158;-73
2023/10/04 00:10:51;;;;;;;35.28;22.27;;;19.00;99.90;;;;;;4995353;28;20116;-74
2023/10/04 00:13:17;;;;;;;33.65;21.50;;;19.00;99.90;;;;;;4993483;28;20038;-74
2023/10/04 00:15:42;;;;;;;28.52;18.85;;;19.00;99.90;;;;;;5007786;28;20029;-73
2023/10/04 00:18:09;;;;;;;29.92;19.73;;;18.80;99.90;;;;;;4990240;28;20104;-74
2023/10/04 00:20:35;;;;;;;31.23;20.60;;;18.60;99.90;;;;;;4995260;28;20041;-73
2023/10/04 00:23:05;;;;;;;30.50;20.48;;;18.60;99.90;;;;;;5000026;28;20034;-73
2023/10/04 00:25:33;;;;;;;34.42;21.90;;;18.60;99.90;;;;;;4989932;28;20022;-74
2023/10/04 00:27:59;;;;;;;30.50;20.75;;;18.50;99.90;;;;;;4991917;28;20042;-73
2023/10/04 00:30:26;;;;;;;33.85;21.40;;;18.60;99.90;;;;;;4992790;28;20053;-73
2023/10/04 00:32:53;;;;;;;30.67;19.65;;;18.60;99.90;;;;;;4990964;28;20040;-73
2023/10/04 00:35:20;;;;;;;30.85;21.33;;;18.50;99.90;;;;;;4989114;28;20533;-73
2023/10/04 00:37:51;;;;;;;28.13;19.63;;;18.50;99.90;;;;;;4989725;28;20022;-73
2023/10/04 00:40:23;;;;;;;29.45;19.65;;;18.40;99.90;;;;;;4990305;28;20438;-73
2023/10/04 00:42:51;;;;;;;29.10;20.58;;;18.30;99.90;;;;;;4994830;28;20038;-73
2023/10/04 00:45:17;;;;;;;33.50;20.80;;;18.20;99.90;;;;;;4991550;28;20053;-73
2023/10/04 00:47:50;;;;;;;33.10;22.10;;;18.20;99.90;;;;;;4995491;28;20037;-73
2023/10/04 00:50:22;;;;;;;30.83;21.77;;;18.20;99.90;;;;;;4995889;28;20124;-73
2023/10/04 00:52:52;;;;;;;32.20;21.02;;;18.30;99.90;;;;;;4990066;28;20041;-73
2023/10/04 00:55:19;;;;;;;28.40;19.73;;;18.20;99.90;;;;;;4989687;28;20022;-73
2023/10/04 00:57:51;;;;;;;30.52;19.98;;;18.20;99.90;;;;;;4990309;28;20030;-73
2023/10/04 01:00:17;;;;;;;30.77;21.92;;;18.20;99.90;;;;;;4988249;28;20058;-74
2023/10/04 01:02:44;;;;;;;27.00;20.90;;;18.20;99.90;;;;;;4989717;28;20045;-74
2023/10/04 01:05:11;;;;;;;31.20;21.20;;;18.20;99.90;;;;;;4999695;28;20030;-74
2023/10/04 01:07:39;;;;;;;31.00;20.65;;;18.30;99.90;;;;;;4988259;28;20053;-74
2023/10/04 01:10:20;;;;;;;28.48;21.02;;;18.20;99.90;;;;;;5002855;28;20030;-74
2023/10/04 01:12:46;;;;;;;32.92;21.40;;;18.20;99.90;;;;;;4992234;28;20037;-74
2023/10/04 01:15:49;;;;;;;28.70;20.48;;;18.20;99.90;;;;;;4994076;28;20034;-74
2023/10/04 01:18:07;;;;;;;31.27;20.20;;;18.20;99.90;;;;;;4989920;28;20520;-74
2023/10/04 01:20:34;;;;;;;37.03;22.85;;;18.20;99.90;;;;;;4997452;28;20029;-74
2023/10/04 01:23:01;;;;;;;29.40;20.52;;;18.20;99.90;;;;;;4990127;28;20053;-74
2023/10/04 01:25:29;;;;;;;33.85;20.02;;;18.20;99.90;;;;;;4993395;28;20550;-75
2023/10/04 01:27:54;;;;;;;34.55;19.98;;;18.10;99.90;;;;;;4989758;28;20030;-74
2023/10/04 01:30:21;;;;;;;28.50;19.55;;;18.10;99.90;;;;;;4988329;28;20038;-75
2023/10/04 01:32:50;;;;;;;34.58;22.05;;;18.00;99.90;;;;;;4990921;28;20029;-74
2023/10/04 01:35:20;;;;;;;31.05;21.25;;;18.10;99.90;;;;;;4993517;28;20044;-74
2023/10/04 01:37:46;;;;;;;38.67;24.33;;;18.00;99.90;;;;;;4990497;28;20038;-74
2023/10/04 01:40:12;;;;;;;48.33;27.25;;;18.00;99.90;;;;;;4999777;28;20023;-74
2023/10/04 01:42:41;;;;;;;38.53;25.35;;;18.10;99.90;;;;;;4980434;28;20057;-74
2023/10/04 01:45:15;;;;;;;39.85;24.85;;;18.40;99.90;;;;;;4990363;28;20034;-74
2023/10/04 01:47:41;;;;;;;;;;;18.60;99.90;;;;;;4997105;28;20439;-74
2023/10/04 01:50:10;;;;;;;38.83;24.58;;;18.60;99.90;;;;;;4996053;28;19913;-74
2023/10/04 01:52:38;;;;;;;39.70;24.33;;;18.50;99.90;;;;;;4991501;28;20032;-74
2023/10/04 01:55:05;;;;;;;32.47;23.63;;;18.30;99.90;;;;;;4990082;28;20461;-74
2023/10/04 01:57:33;;;;;;;39.50;25.38;;;18.40;99.90;;;;;;4988102;28;20023;-74
2023/10/04 01:59:59;;;;;;;36.05;25.65;;;18.60;99.90;;;;;;4996539;28;20108;-74
2023/10/04 02:02:24;;;;;;;36.08;24.10;;;18.50;99.90;;;;;;4988055;28;20129;-74
2023/10/04 02:04:54;;;;;;;38.45;26.40;;;18.50;99.90;;;;;;4987671;28;20113;-74
2023/10/04 02:07:23;;;;;;;36.58;25.25;;;18.60;99.90;;;;;;4989088;28;20026;-74
2023/10/04 02:09:51;;;;;;;35.70;24.58;;;18.60;99.90;;;;;;4991028;28;20084;-74
2023/10/04 02:12:18;;;;;;;37.10;26.10;;;18.70;99.90;;;;;;4992606;28;20017;-75
2023/10/04 02:14:47;;;;;;;34.03;22.90;;;18.60;99.90;;;;;;4992163;28;20028;-74
2023/10/04 02:17:17;;;;;;;37.08;23.20;;;18.50;99.90;;;;;;4997875;28;20469;-74
2023/10/04 02:19:46;;;;;;;36.53;24.20;;;18.50;99.90;;;;;;4999023;28;20026;-74
2023/10/04 02:22:15;;;;;;;34.90;22.20;;;18.40;99.90;;;;;;4992030;28;20113;-74
2023/10/04 02:24:41;;;;;;;47.42;25.58;;;18.30;99.90;;;;;;4991657;28;20090;-74
2023/10/04 02:27:07;;;;;;;40.85;26.77;;;18.30;99.90;;;;;;4993006;28;20027;-75
2023/10/04 02:29:38;;;;;;;34.67;23.05;;;18.40;99.90;;;;;;4991580;28;20029;-75
2023/10/04 02:32:09;;;;;;;30.33;20.52;;;18.30;99.90;;;;;;4989857;28;20034;-75
2023/10/04 02:34:38;;;;;;;32.97;22.33;;;18.20;99.90;;;;;;4993870;28;20503;-74
2023/10/04 02:37:07;;;;;;;33.33;22.27;;;18.00;99.90;;;;;;4990493;28;20031;-74
2023/10/04 02:39:39;;;;;;;32.97;21.60;;;17.80;99.90;;;;;;4999141;28;20026;-74
2023/10/04 02:42:09;;;;;;;35.38;21.05;;;17.70;99.90;;;;;;5001116;28;20065;-74
2023/10/04 02:44:39;;;;;;;30.40;21.27;;;17.70;99.90;;;;;;4999938;28;20030;-74
2023/10/04 02:47:08;;;;;;;34.72;21.30;;;17.80;99.90;;;;;;4995310;28;20036;-74
2023/10/04 02:49:37;;;;;;;35.63;23.20;;;17.80;99.90;;;;;;4997766;28;20121;-74
2023/10/04 02:52:07;;;;;;;34.15;22.45;;;17.70;99.90;;;;;;4996511;28;20626;-74
2023/10/04 02:54:33;;;;;;;32.67;22.90;;;17.60;99.90;;;;;;4993387;28;20037;-74
2023/10/04 02:57:00;;;;;;;32.97;22.95;;;17.50;99.90;;;;;;4998335;28;20030;-74
2023/10/04 02:59:27;;;;;;;31.38;22.38;;;17.40;99.90;;;;;;4996726;28;20050;-74
2023/10/04 03:01:53;;;;;;;33.10;23.35;;;17.40;99.90;;;;;;5001876;28;20069;-74
2023/10/04 03:04:22;;;;;;;30.73;22.02;;;17.30;99.90;;;;;;4984685;28;20034;-75
2023/10/04 03:06:48;;;;;;;31.50;20.88;;;17.20;99.90;;;;;;4991028;28;20058;-74
2023/10/04 03:09:14;;;;;;;33.45;22.35;;;17.10;99.90;;;;;;4970305;28;20354;-75
2023/10/04 03:11:42;;;;;;;34.47;22.52;;;17.10;99.90;;;;;;4993552;28;20034;-74
2023/10/04 03:14:08;;;;;;;35.92;22.45;;;17.30;99.90;;;;;;4990364;28;20353;-74
2023/10/04 03:16:34;;;;;;;35.67;23.10;;;17.30;99.90;;;;;;4988902;28;20036;-75
2023/10/04 03:19:01;;;;;;;34.53;22.55;;;17.40;99.90;;;;;;4995558;28;20026;-74
2023/10/04 03:21:31;;;;;;;32.40;21.85;;;17.30;99.90;;;;;;4989571;28;20061;-74
2023/10/04 03:23:58;;;;;;;34.15;23.88;;;17.30;99.90;;;;;;4989958;28;20453;-74
2023/10/04 03:26:24;;;;;;;31.23;22.23;;;17.20;99.90;;;;;;4984471;28;20042;-74
2023/10/04 03:28:50;;;;;;;32.08;22.38;;;17.20;99.90;;;;;;4981752;28;20124;-74
2023/10/04 03:31:18;;;;;;;36.00;22.67;;;17.20;99.90;;;;;;4983005;28;20129;-74
2023/10/04 03:33:45;;;;;;;36.83;24.02;;;17.20;99.90;;;;;;4985575;28;20074;-74
2023/10/04 03:36:14;;;;;;;29.95;21.20;;;17.20;99.90;;;;;;4985265;28;20031;-74
2023/10/04 03:38:41;;;;;;;33.53;22.42;;;17.20;99.90;;;;;;4982429;28;20026;-75
2023/10/04 03:41:07;;;;;;;34.05;22.17;;;17.10;99.90;;;;;;4992305;28;20062;-74
2023/10/04 03:43:35;;;;;;;31.00;21.80;;;17.20;99.90;;;;;;4994637;28;20726;-74
2023/10/04 03:46:16;;;;;;;31.25;22.17;;;17.20;99.90;;;;;;4991538;28;20037;-74
2023/10/04 03:48:42;;;;;;;29.83;21.85;;;17.10;99.90;;;;;;4991678;28;20121;-75
2023/10/04 03:51:07;;;;;;;32.40;20.52;;;16.90;99.90;;;;;;4992332;28;20042;-74
2023/10/04 03:53:33;;;;;;;32.30;19.23;;;17.00;99.90;;;;;;4988715;28;20069;-74
2023/10/04 03:55:59;;;;;;;36.42;21.02;;;16.80;99.90;;;;;;4987654;28;20034;-74
2023/10/04 03:58:25;;;;;;;33.63;22.52;;;16.80;99.90;;;;;;4983167;28;20033;-73
2023/10/04 04:00:51;;;;;;;33.53;23.10;;;16.80;99.90;;;;;;4989553;28;20035;-74
2023/10/04 04:03:18;;;;;;;34.03;23.00;;;16.80;99.90;;;;;;4997194;28;20121;-74
2023/10/04 04:05:44;;;;;;;33.40;23.33;;;16.90;99.90;;;;;;4985512;28;20022;-74
2023/10/04 04:08:12;;;;;;;33.28;25.40;;;17.00;99.90;;;;;;4991889;28;20030;-75
2023/10/04 04:10:38;;;;;;;29.70;20.98;;;16.90;99.90;;;;;;4991532;28;20450;-75
2023/10/04 04:13:04;;;;;;;37.83;24.77;;;16.90;99.90;;;;;;4990673;28;20018;-75
2023/10/04 04:15:33;;;;;;;40.22;25.00;;;17.20;99.90;;;;;;4989234;28;20049;-74
2023/10/04 04:17:59;;;;;;;43.13;26.70;;;17.40;99.90;;;;;;4985663;28;20073;-74
2023/10/04 04:20:26;;;;;;;37.70;25.35;;;17.60;99.90;;;;;;4990779;28;20037;-73
2023/10/04 04:22:55;;;;;;;37.60;25.55;;;17.60;99.90;;;;;;4988025;28;20047;-74
2023/10/04 04:25:23;;;;;;;36.38;21.65;;;17.60;99.90;;;;;;4985245;28;20069;-75
2023/10/04 04:27:50;;;;;;;28.73;19.88;;;17.50;99.90;;;;;;4996621;28;20131;-74
2023/10/04 04:30:28;;;;;;;28.80;20.25;;;17.50;99.90;;;;;;4982035;28;20620;-74
2023/10/04 04:32:58;;;;;;;41.50;27.00;;;17.50;99.90;;;;;;4992611;28;20388;-74
2023/10/04 04:40:38;;;;;;;37.13;23.77;;;17.70;99.90;;;;;;4991940;28;20037;-74
2023/10/04 04:45:51;;;;;;;;;;;17.70;99.90;;;;;;4996877;28;20026;-74
2023/10/04 04:48:43;;;;;;;32.88;18.80;;;17.70;99.90;;;;;;4987556;28;19914;-74
2023/10/04 04:51:12;;;;;;;25.05;18.83;;;17.70;99.90;;;;;;4982329;28;20082;-74
2023/10/04 04:53:45;;;;;;;26.02;18.38;;;17.60;99.90;;;;;;4985455;28;20030;-74
2023/10/04 04:56:15;;;;;;;33.40;21.00;;;17.50;99.90;;;;;;4993376;28;20030;-74
2023/10/04 04:58:42;;;;;;;26.45;19.67;;;17.40;99.90;;;;;;4988647;28;20049;-73
2023/10/04 05:01:11;;;;;;;27.10;20.20;;;17.20;99.90;;;;;;4985413;28;20030;-74
2023/10/04 05:03:41;;;;;;;33.38;21.95;;;17.10;99.90;;;;;;4987256;28;20026;-74
2023/10/04 05:06:09;;;;;;;33.67;21.55;;;17.00;99.90;;;;;;4993962;28;20026;-73
2023/10/04 05:08:36;;;;;;;30.42;18.85;;;16.90;99.90;;;;;;4985592;28;20030;-73
2023/10/04 05:11:06;;;;;;;29.17;20.05;;;16.80;99.90;;;;;;4992793;28;20046;-73
2023/10/04 05:13:31;;;;;;;25.70;17.55;;;16.90;99.90;;;;;;4985498;28;20084;-73
2023/10/04 05:15:57;;;;;;;27.50;20.00;;;17.00;99.90;;;;;;4989378;28;20558;-73
2023/10/04 05:18:23;;;;;;;31.15;21.55;;;17.10;99.90;;;;;;4988445;28;20030;-73
2023/10/04 05:20:52;;;;;;;33.63;21.65;;;17.20;99.90;;;;;;4995963;28;20026;-74
2023/10/04 05:23:19;;;;;;;30.67;20.42;;;17.20;99.90;;;;;;4991028;28;20050;-73
2023/10/04 05:25:45;;;;;;;27.33;20.75;;;17.30;99.90;;;;;;4994640;28;20025;-74
2023/10/04 05:28:14;;;;;;;35.78;19.88;;;17.20;99.90;;;;;;4989782;28;20034;-74
2023/10/04 05:30:42;;;;;;;25.65;17.58;;;17.20;99.90;;;;;;4985868;28;20037;-74
2023/10/04 05:33:08;;;;;;;28.25;18.27;;;17.00;99.90;;;;;;4991722;28;20046;-75
2023/10/04 05:35:38;;;;;;;26.60;18.50;;;17.00;99.90;;;;;;4984065;28;20109;-73
2023/10/04 05:38:04;;;;;;;27.88;18.85;;;17.00;99.90;;;;;;4981293;28;20508;-75
2023/10/04 05:40:35;;;;;;;27.45;19.20;;;17.00;99.90;;;;;;4984750;28;20022;-74
2023/10/04 05:43:03;;;;;;;27.05;19.52;;;16.90;99.90;;;;;;4969966;28;20507;-74
2023/10/04 05:45:29;;;;;;;20.92;16.10;;;16.90;99.90;;;;;;4991197;28;20218;-74
2023/10/04 05:47:56;;;;;;;29.65;17.90;;;16.90;99.90;;;;;;5003968;28;20061;-74
2023/10/04 05:50:22;;;;;;;28.73;18.98;;;16.80;99.90;;;;;;4991715;28;20042;-75
2023/10/04 05:52:52;;;;;;;31.77;19.60;;;16.80;99.90;;;;;;4993031;28;20044;-74
2023/10/04 05:55:18;;;;;;;28.88;18.95;;;16.90;99.90;;;;;;4991968;28;20465;-75
2023/10/04 05:57:50;;;;;;;28.25;18.75;;;17.00;99.90;;;;;;4995457;28;20032;-75
2023/10/04 06:02:53;;;;;;;21.43;15.87;;;17.10;99.90;;;;;;4995028;28;20038;-74
2023/10/04 06:05:23;;;;;;;29.38;19.15;;;17.50;99.90;;;;;;4985304;28;20064;-75
2023/10/04 06:07:54;;;;;;;25.20;16.17;;;17.60;99.90;;;;;;4993040;28;20065;-75
2023/10/04 06:10:21;;;;;;;26.73;18.98;;;17.50;99.90;;;;;;4990497;28;20038;-76
2023/10/04 06:12:47;;;;;;;23.15;16.40;;;17.40;99.90;;;;;;4991909;28;20117;-76
2023/10/04 06:15:16;;;;;;;24.92;16.88;;;17.30;99.90;;;;;;4992582;28;20038;-76
2023/10/04 06:17:45;;;;;;;28.30;18.30;;;17.40;99.90;;;;;;5003825;28;20057;-75
2023/10/04 06:20:36;;;;;;;27.88;18.85;;;17.30;99.90;;;;;;4993848;28;20032;-75
2023/10/04 06:23:05;;;;;;;24.80;17.05;;;17.20;99.90;;;;;;4988343;28;20057;-75
2023/10/04 06:25:32;;;;;;;27.42;17.67;;;17.40;99.90;;;;;;4993284;28;20033;-77
2023/10/04 06:28:00;;;;;;;24.00;16.75;;;17.50;99.90;;;;;;4990071;28;20030;-75
2023/10/04 06:30:28;;;;;;;27.25;17.20;;;17.50;99.90;;;;;;4995710;28;20109;-75
2023/10/04 06:32:55;;;;;;;24.75;17.45;;;17.50;99.90;;;;;;4988497;28;20026;-75
2023/10/04 06:35:23;;;;;;;23.80;17.48;;;17.50;99.90;;;;;;4987530;28;20172;-76
2023/10/04 06:37:54;;;;;;;25.45;18.27;;;17.50;99.90;;;;;;4994897;28;20018;-75
2023/10/04 06:40:20;;;;;;;23.55;17.67;;;17.40;99.90;;;;;;4991300;28;20053;-75
2023/10/04 06:42:48;;;;;;;21.63;15.93;;;17.50;99.90;;;;;;4991712;28;20033;-75
2023/10/04 06:45:15;;;;;;;24.92;17.77;;;17.50;99.90;;;;;;4991085;28;20054;-76
2023/10/04 06:47:43;;;;;;;26.63;18.65;;;17.50;99.90;;;;;;4988108;28;20125;-76
2023/10/04 06:50:13;;;;;;;26.30;16.88;;;17.70;99.90;;;;;;4983270;28;20031;-74
2023/10/04 06:52:42;;;;;;;21.35;15.88;;;17.80;99.90;;;;;;4983292;28;20034;-76
2023/10/04 06:55:10;;;;;;;22.67;15.32;;;17.90;99.90;;;;;;4985096;28;20079;-75
2023/10/04 06:57:36;;;;;;;26.27;18.23;;;17.90;99.90;;;;;;4992445;28;20031;-75
2023/10/04 07:00:12;;;;;;;25.67;18.20;;;17.90;99.90;;;;;;4993368;28;20152;-74
2023/10/04 07:02:38;;;;;;;24.65;17.88;;;17.90;99.90;;;;;;4985934;28;20116;-75
2023/10/04 07:05:05;;;;;;;26.13;17.75;;;18.10;99.90;;;;;;4982925;28;20624;-75
2023/10/04 07:07:31;;;;;;;34.55;18.67;;;18.20;99.90;;;;;;4982791;28;20026;-75
2023/10/04 07:09:57;;;;;;;28.38;19.15;;;18.30;99.90;;;;;;4986600;28;20041;-77
2023/10/04 07:12:23;;;;;;;29.25;18.58;;;18.30;99.90;;;;;;4984524;28;20145;-76
2023/10/04 07:14:49;;;;;;;28.13;18.58;;;18.30;99.90;;;;;;4983860;28;20939;-76
2023/10/04 07:17:19;;;;;;;29.55;20.17;;;18.30;99.90;;;;;;4983764;28;20039;-75
2023/10/04 07:19:45;;;;;;;27.23;19.67;;;18.30;99.90;;;;;;4987609;28;20026;-75
2023/10/04 07:22:10;;;;;;;28.45;18.98;;;18.40;99.90;;;;;;4982892;28;20409;-76
2023/10/04 07:24:37;;;;;;;29.13;18.77;;;18.50;99.90;;;;;;4994429;28;20376;-75
2023/10/04 07:27:04;;;;;;;26.92;18.77;;;18.50;99.90;;;;;;4987524;28;20077;-76
2023/10/04 07:29:30;;;;;;;31.38;19.90;;;18.40;99.90;;;;;;4985479;28;20053;-76
2023/10/04 07:31:56;;;;;;;32.60;19.90;;;18.30;99.90;;;;;;4983786;28;20121;-75
2023/10/04 07:34:27;;;;;;;28.40;20.38;;;18.30;99.90;;;;;;4982690;28;20060;-75
2023/10/04 07:36:53;;;;;;;30.05;19.55;;;18.40;99.90;;;;;;4985102;28;20034;-75
2023/10/04 07:39:21;;;;;;;29.65;19.05;;;18.50;99.90;;;;;;4985546;28;20040;-76
2023/10/04 07:41:47;;;;;;;27.67;18.23;;;18.60;99.90;;;;;;4984023;28;20030;-76
2023/10/04 07:44:13;;;;;;;28.77;18.77;;;18.70;99.90;;;;;;4984616;28;20030;-75
2023/10/04 07:46:39;;;;;;;26.88;17.73;;;18.80;99.90;;;;;;4993130;28;20037;-75
2023/10/04 07:49:05;;;;;;;25.27;17.77;;;18.80;99.90;;;;;;4968537;28;20014;-76
2023/10/04 07:51:31;;;;;;;28.98;18.92;;;18.80;99.90;;;;;;4985930;28;20065;-74
2023/10/04 07:53:58;;;;;;;29.92;19.50;;;18.90;99.90;;;;;;4993747;28;20396;-76
2023/10/04 07:56:26;;;;;;;27.42;19.52;;;19.10;99.90;;;;;;4986118;28;20022;-75
2023/10/04 07:58:52;;;;;;;25.33;19.10;;;19.00;99.90;;;;;;4991253;28;20140;-75
2023/10/04 08:01:18;;;;;;;28.45;19.02;;;18.90;99.90;;;;;;4992509;28;20053;-75
2023/10/04 08:03:43;;;;;;;28.50;19.15;;;19.00;99.90;;;;;;4986092;28;20037;-75
2023/10/04 08:06:12;;;;;;;29.77;19.08;;;19.20;99.90;;;;;;4983934;28;20461;-75
2023/10/04 08:08:41;;;;;;;32.30;20.90;;;19.20;99.90;;;;;;4986488;28;20378;-75
2023/10/04 08:11:08;;;;;;;26.77;18.80;;;19.20;99.90;;;;;;4994823;28;20121;-75
2023/10/04 08:13:34;;;;;;;36.10;19.25;;;19.20;99.90;;;;;;4991627;28;20066;-75
2023/10/04 08:16:03;;;;;;;30.95;19.40;;;19.20;99.90;;;;;;4988336;28;20053;-75
2023/10/04 08:18:29;;;;;;;28.95;20.48;;;19.20;99.90;;;;;;4985707;28;20038;-75
2023/10/04 08:20:55;;;;;;;27.52;18.83;;;19.20;99.90;;;;;;4991321;28;20461;-75
2023/10/04 08:23:21;;;;;;;26.45;18.35;;;19.30;99.90;;;;;;4987731;28;20397;-75
2023/10/04 08:25:49;;;;;;;26.40;18.42;;;19.40;99.90;;;;;;4991053;28;20065;-75
2023/10/04 08:28:16;;;;;;;24.65;16.38;;;19.40;99.90;;;;;;4984599;28;20058;-75
2023/10/04 08:30:42;;;;;;;25.27;16.05;;;19.30;99.90;;;;;;4985574;28;20045;-75
2023/10/04 08:33:08;;;;;;;21.25;13.65;;;19.30;99.90;;;;;;4992080;28;20034;-75
2023/10/04 08:35:36;;;;;;;23.10;14.27;;;19.20;99.90;;;;;;4987284;28;20056;-75
2023/10/04 08:38:06;;;;;;;22.60;13.82;;;19.20;99.90;;;;;;4983938;28;20026;-75
2023/10/04 08:40:38;;;;;;;21.15;13.93;;;19.30;99.90;;;;;;4986481;28;20497;-75
2023/10/04 08:43:05;;;;;;;23.58;14.18;;;19.30;99.90;;;;;;4992619;28;20038;-75
2023/10/04 08:45:34;;;;;;;23.23;15.18;;;19.40;99.90;;;;;;4989548;28;20556;-74
2023/10/04 08:48:00;;;;;;;26.85;14.73;;;19.40;99.90;;;;;;4990073;28;20030;-75
2023/10/04 08:50:29;;;;;;;26.13;15.68;;;19.40;99.90;;;;;;4993702;28;20038;-77
2023/10/04 08:53:23;;;;;;;29.08;17.02;;;19.50;99.90;;;;;;4988425;28;20423;-75
2023/10/04 08:55:51;;;;;;;26.33;16.10;;;19.50;99.90;;;;;;4960812;28;20048;-75
2023/10/04 08:58:19;;;;;;;26.13;14.93;;;19.40;99.90;;;;;;4989428;28;20041;-75
2023/10/04 09:00:48;;;;;;;26.02;16.40;;;19.60;99.90;;;;;;4983535;28;20042;-75
2023/10/04 09:03:15;;;;;;;23.65;16.60;;;19.60;99.90;;;;;;4986850;28;20080;-75
2023/10/04 09:05:50;;;;;;;23.42;16.40;;;19.60;99.90;;;;;;4993688;28;20021;-75
2023/10/04 09:08:16;;;;;;;23.88;15.90;;;19.80;99.90;;;;;;4985001;28;20030;-75
2023/10/04 09:10:43;;;;;;;25.55;16.58;;;20.00;99.90;;;;;;4986082;28;20626;-75
2023/10/04 09:13:09;;;;;;;32.35;16.45;;;20.10;99.90;;;;;;4980697;28;20038;-75
2023/10/04 09:15:35;;;;;;;27.48;17.30;;;20.20;99.90;;;;;;4991063;28;20391;-75
2023/10/04 09:18:03;;;;;;;25.48;16.63;;;20.20;99.90;;;;;;4989218;28;20027;-75
2023/10/04 09:20:32;;;;;;;34.13;17.98;;;20.10;99.90;;;;;;4988678;28;20082;-75
2023/10/04 09:22:59;;;;;;;28.45;16.23;;;20.20;99.90;;;;;;4986615;28;20045;-75
2023/10/04 09:25:37;;;;;;;25.20;17.02;;;20.20;99.90;;;;;;4989316;28;20449;-75
2023/10/04 09:28:04;;;;;;;27.23;16.35;;;20.40;99.90;;;;;;4985181;28;20027;-75
2023/10/04 09:30:34;;;;;;;24.30;16.02;;;20.60;99.90;;;;;;4984692;28;20046;-75
2023/10/04 09:32:59;;;;;;;22.77;15.27;;;20.60;99.90;;;;;;4984709;28;20031;-75
2023/10/04 09:35:43;;;;;;;25.75;15.57;;;20.60;99.90;;;;;;4987479;28;20040;-75
2023/10/04 09:38:22;;;;;;;25.75;16.27;;;20.60;99.90;;;;;;4987609;28;20038;-75
2023/10/04 09:40:51;;;;;;;24.42;14.98;;;20.60;99.90;;;;;;4993116;28;20033;-75
2023/10/04 09:43:17;;;;;;;21.58;15.05;;;20.40;99.90;;;;;;4972320;28;20078;-74
2023/10/04 09:45:58;;;;;;;28.80;16.08;;;20.30;99.90;;;;;;4983907;28;20895;-74
2023/10/04 09:48:30;;;;;;;23.58;15.10;;;20.40;99.90;;;;;;4982781;28;20027;-75
2023/10/04 09:51:01;;;;;;;21.48;14.30;;;20.40;99.90;;;;;;4990720;28;20130;-74
2023/10/04 09:53:28;;;;;;;24.17;14.80;;;20.30;99.90;;;;;;4990764;28;20108;-75
2023/10/04 09:55:58;;;;;;;25.05;15.75;;;20.30;99.90;;;;;;4994692;28;20401;-75
2023/10/04 09:58:29;;;;;;;21.85;14.90;;;20.30;99.90;;;;;;4999636;28;20030;-75
2023/10/04 10:00:56;;;;;;;22.20;15.05;;;20.20;99.90;;;;;;4987919;28;20587;-76
2023/10/04 10:03:28;;;;;;;24.42;13.07;;;20.10;99.90;;;;;;4996231;28;20025;-75
2023/10/04 10:05:58;;;;;;;25.85;14.07;;;20.10;99.90;;;;;;4994838;28;20038;-75
2023/10/04 10:08:31;;;;;;;22.63;15.65;;;20.10;99.90;;;;;;4985405;28;20029;-74
2023/10/04 10:11:00;;;;;;;23.58;13.45;;;20.20;99.90;;;;;;4992416;28;20447;-74
2023/10/04 10:13:26;;;;;;;22.38;14.07;;;20.20;99.90;;;;;;5006378;28;20608;-75
2023/10/04 10:15:53;;;;;;;23.48;13.93;;;20.30;99.90;;;;;;4993981;28;20030;-75
2023/10/04 10:18:20;;;;;;;23.40;14.80;;;20.40;99.90;;;;;;5004134;28;20488;-75
2023/10/04 10:20:46;;;;;;;26.83;14.38;;;20.40;99.90;;;;;;5004700;28;20095;-75
2023/10/04 10:23:13;;;;;;;24.60;14.30;;;20.40;99.90;;;;;;5006276;28;20038;-75
2023/10/04 10:25:41;;;;;;;24.25;14.10;;;20.40;99.90;;;;;;5006103;28;20026;-75
2023/10/04 10:28:20;;;;;;;19.92;13.35;;;20.40;99.90;;;;;;4993259;28;20038;-75
2023/10/04 10:30:46;;;;;;;20.02;14.15;;;20.40;99.90;;;;;;5005130;28;20033;-74
2023/10/04 10:33:12;;;;;;;28.63;15.13;;;20.40;99.90;;;;;;5005949;28;20496;-75
2023/10/04 10:35:56;;;;;;;24.67;14.85;;;20.40;99.90;;;;;;5005824;28;20029;-75
2023/10/04 10:38:39;;;;;;;23.93;14.33;;;20.50;99.90;;;;;;5009474;28;20018;-74
2023/10/04 10:41:06;;;;;;;19.37;12.33;;;20.60;99.90;;;;;;5007858;28;20308;-74
2023/10/04 10:43:35;;;;;;;19.77;11.27;;;20.80;99.90;;;;;;5010107;28;20875;-74
2023/10/04 10:46:29;;;;;;;18.73;11.70;;;20.80;99.90;;;;;;5010092;28;20022;-74
2023/10/04 10:48:58;;;;;;;17.33;11.90;;;20.90;99.90;;;;;;5010582;28;20034;-74
2023/10/04 10:51:54;;;;;;;16.65;11.02;;;20.90;99.90;;;;;;5010183;28;20618;-74
2023/10/04 10:54:20;;;;;;;17.58;10.68;;;21.00;99.90;;;;;;5000861;28;20386;-74
2023/10/04 10:56:46;;;;;;;19.42;11.70;;;21.10;99.90;;;;;;5009682;28;20148;-74
2023/10/04 10:59:12;;;;;;;17.58;10.93;;;21.30;99.90;;;;;;5009180;28;20602;-74
2023/10/04 11:01:37;;;;;;;17.88;10.80;;;21.50;99.90;;;;;;5008596;28;20114;-74
2023/10/04 11:04:04;;;;;;;18.38;10.93;;;21.40;99.90;;;;;;4999738;28;20062;-74
2023/10/04 11:06:30;;;;;;;18.90;10.57;;;21.60;99.90;;;;;;4990278;28;20038;-74
2023/10/04 11:08:55;;;;;;;15.73;10.45;;;21.80;99.90;;;;;;4988627;28;20030;-73
2023/10/04 11:11:22;;;;;;;14.30;10.40;;;21.90;99.90;;;;;;4986872;28;20031;-74
2023/10/04 11:13:48;;;;;;;18.40;10.63;;;22.20;99.90;;;;;;4993632;28;20036;-74
2023/10/04 11:16:14;;;;;;;22.73;9.95;;;22.30;99.90;;;;;;4987506;28;20504;-74
2023/10/04 11:18:40;;;;;;;16.50;10.15;;;22.30;99.90;;;;;;4993341;28;20096;-74
2023/10/04 11:21:06;;;;;;;17.10;10.15;;;22.20;99.90;;;;;;4987729;28;20100;-74
2023/10/04 11:23:34;;;;;;;15.32;9.82;;;22.40;99.90;;;;;;4994512;28;20074;-74
2023/10/04 11:26:00;;;;;;;14.82;9.25;;;22.50;99.90;;;;;;4986101;28;20124;-74
2023/10/04 11:28:27;;;;;;;15.10;9.43;;;22.60;99.90;;;;;;4986159;28;20058;-75
2023/10/04 11:30:53;;;;;;;15.05;9.30;;;22.80;99.90;;;;;;4993550;28;20053;-75
2023/10/04 11:33:19;;;;;;;16.70;9.20;;;22.80;99.90;;;;;;4991653;28;20068;-74
2023/10/04 11:35:47;;;;;;;14.93;9.02;;;22.90;99.90;;;;;;4996364;28;20057;-74
2023/10/04 11:38:19;;;;;;;13.60;8.52;;;22.90;99.90;;;;;;4993224;28;20115;-74
2023/10/04 11:40:49;;;;;;;15.52;9.48;;;22.80;99.90;;;;;;4989755;28;20018;-74
2023/10/04 11:43:15;;;;;;;13.98;8.88;;;22.80;99.90;;;;;;4986653;28;20024;-74
2023/10/04 11:45:41;;;;;;;18.13;9.85;;;23.10;99.90;;;;;;4984061;28;20041;-74
2023/10/04 11:48:08;;;;;;;13.90;8.82;;;23.20;99.90;;;;;;4990209;28;20034;-73
2023/10/04 11:50:53;;;;;;;14.48;8.95;;;23.10;99.90;;;;;;4994430;28;20032;-73
2023/10/04 11:53:39;;;;;;;13.98;8.43;;;23.20;99.90;;;;;;4987194;28;20029;-74
2023/10/04 11:56:07;;;;;;;14.60;8.90;;;23.20;99.90;;;;;;4982299;28;20040;-73
2023/10/04 11:58:48;;;;;;;16.38;9.95;;;23.20;99.90;;;;;;4985146;28;20050;-73
2023/10/04 12:01:22;;;;;;;16.90;9.30;;;23.10;99.90;;;;;;4991630;28;20052;-72
2023/10/04 12:03:53;;;;;;;13.90;8.32;;;23.30;99.90;;;;;;4983986;28;20105;-75
2023/10/04 12:06:26;;;;;;;17.98;11.20;;;23.40;99.90;;;;;;4981845;28;20022;-77
2023/10/04 12:08:54;;;;;;;13.32;8.63;;;23.60;99.90;;;;;;4984471;28;20056;-74
2023/10/04 12:11:25;;;;;;;15.23;9.32;;;23.60;99.90;;;;;;4988381;28;20109;-75
2023/10/04 12:13:51;;;;;;;16.08;8.77;;;23.70;99.90;;;;;;4979085;28;23168;-75
2023/10/04 12:16:17;;;;;;;14.55;9.85;;;23.60;99.90;;;;;;4987506;28;20496;-75
2023/10/04 12:18:43;;;;;;;16.52;9.88;;;23.50;99.90;;;;;;4984576;28;20022;-75
2023/10/04 12:21:10;;;;;;;13.35;8.50;;;23.30;99.90;;;;;;4991671;28;23436;-75
2023/10/04 12:23:36;;;;;;;13.60;8.50;;;23.30;99.90;;;;;;4993536;28;20373;-76
2023/10/04 12:26:03;;;;;;;15.00;8.77;;;23.20;99.90;;;;;;4993659;28;20030;-74
2023/10/04 12:28:29;;;;;;;19.67;8.38;;;23.20;99.90;;;;;;4990703;28;20132;-75
2023/10/04 12:31:01;;;;;;;14.13;8.07;;;23.20;99.90;;;;;;4991446;28;20165;-75
2023/10/04 12:33:29;;;;;;;13.75;9.02;;;23.20;99.90;;;;;;4985006;28;20092;-74
2023/10/04 12:35:56;;;;;;;13.60;7.68;;;23.30;99.90;;;;;;4987105;28;20474;-75
2023/10/04 12:38:24;;;;;;;14.50;8.02;;;23.40;99.90;;;;;;4983721;28;20039;-75
2023/10/04 12:40:50;;;;;;;14.18;8.13;;;23.60;99.90;;;;;;4969046;28;20037;-75
2023/10/04 12:43:16;;;;;;;13.27;8.18;;;23.90;99.90;;;;;;4986398;28;20029;-75
2023/10/04 12:45:42;;;;;;;14.55;8.50;;;23.80;99.90;;;;;;4984153;28;20026;-74